createdAt,value
2022-10-27T00:02:09.825Z,78
2022-10-27T00:04:58.172Z,78.4
2022-10-27T00:07:45.397Z,78.3
2022-10-27T00:10:33.269Z,78.6
2022-10-27T00:13:21.395Z,78.4
2022-10-27T00:16:09.271Z,77.6
2022-10-27T00:19:00.138Z,77.9
2022-10-27T00:21:47.440Z,77.8
2022-10-27T00:24:36.205Z,78.1
2022-10-27T00:27:23.865Z,78.3
2022-10-27T00:30:12.071Z,78.2
2022-10-27T00:32:59.378Z,78.2
2022-10-27T00:35:46.620Z,78.6
2022-10-27T00:38:34.415Z,78.1
2022-10-27T00:41:22.799Z,78.3
2022-10-27T00:44:13.836Z,78.7
2022-10-27T00:47:20.893Z,78.7
2022-10-27T00:50:10.940Z,79
2022-10-27T00:53:01.976Z,79.1
2022-10-27T00:55:49.456Z,79.1
2022-10-27T00:58:36.904Z,79
2022-10-27T01:01:24.727Z,79.2
2022-10-27T01:04:12.896Z,79.1
2022-10-27T01:07:03.350Z,79.4
2022-10-27T01:09:50.907Z,79.5
2022-10-27T01:12:38.532Z,79.7
2022-10-27T01:15:26.951Z,79.6
2022-10-27T01:18:21.347Z,79.4
2022-10-27T01:21:14.392Z,79.6
2022-10-27T01:24:24.184Z,79.6
2022-10-27T01:27:27.672Z,79.8
2022-10-27T01:30:36.996Z,79.6
2022-10-27T01:33:39.488Z,79.5
2022-10-27T01:36:34.797Z,79.7
2022-10-27T01:39:27.402Z,79.5
2022-10-27T01:42:21.662Z,79.8
2022-10-27T01:45:14.147Z,79.4
2022-10-27T01:48:07.667Z,79.3
2022-10-27T01:51:01.556Z,79.4
2022-10-27T01:53:51.552Z,79.6
2022-10-27T01:56:40.667Z,79.7
2022-10-27T01:59:49.042Z,79.6
2022-10-27T02:02:46.668Z,79.6
2022-10-27T02:05:37.816Z,79.6
2022-10-27T02:08:34.294Z,79.7
2022-10-27T02:11:27.193Z,79.9
2022-10-27T02:14:19.371Z,79.8
2022-10-27T02:17:07.832Z,79.8
2022-10-27T02:19:58.753Z,79.7
2022-10-27T02:22:51.461Z,80
2022-10-27T02:25:41.456Z,80.1
2022-10-27T02:28:37.049Z,79.5
2022-10-27T02:31:30.349Z,79.1
2022-10-27T02:34:21.414Z,78.9
2022-10-27T02:37:11.830Z,78.9
2022-10-27T02:40:05.444Z,78.7
2022-10-27T02:42:54.978Z,78.8
2022-10-27T02:45:42.265Z,78.8
2022-10-27T02:48:29.764Z,78.8
2022-10-27T02:51:17.609Z,79.3
2022-10-27T02:54:06.296Z,78.7
2022-10-27T02:56:53.609Z,78.5
2022-10-27T02:59:40.913Z,77.9
2022-10-27T03:02:28.770Z,78.5
2022-10-27T03:05:16.070Z,78.3
2022-10-27T03:08:03.508Z,78.4
2022-10-27T03:10:51.266Z,78.3
2022-10-27T03:13:38.544Z,77.8
2022-10-27T03:16:25.814Z,78.3
2022-10-27T03:19:13.355Z,78.2
2022-10-27T03:22:00.716Z,78
2022-10-27T03:24:48.072Z,78
2022-10-27T03:27:35.385Z,78.1
2022-10-27T03:30:24.732Z,77.5
2022-10-27T03:33:12.156Z,76.7
2022-10-27T03:35:59.465Z,76.5
2022-10-27T03:38:46.778Z,76.4
2022-10-27T03:41:34.640Z,76
2022-10-27T03:44:21.983Z,76.8
2022-10-27T03:47:09.233Z,77.8
2022-10-27T03:49:56.543Z,77.8
2022-10-27T03:52:43.812Z,77.4
2022-10-27T03:55:31.214Z,77.8
2022-10-27T03:58:18.994Z,78.7
2022-10-27T04:01:06.885Z,77.1
2022-10-27T04:03:56.142Z,77.1
2022-10-27T04:06:43.423Z,76.3
2022-10-27T04:09:30.731Z,76.1
2022-10-27T04:12:18.184Z,77.6
2022-10-27T04:15:06.576Z,77.5
2022-10-27T04:17:54.931Z,76.6
2022-10-27T04:20:44.441Z,76.9
2022-10-27T04:23:31.693Z,77.3
2022-10-27T04:26:19.352Z,78.2
2022-10-27T04:29:07.131Z,78.3
2022-10-27T04:31:54.714Z,77.5
2022-10-27T04:34:42.063Z,77.5
2022-10-27T04:37:29.351Z,77.9
2022-10-27T04:40:16.851Z,76.9
2022-10-27T04:43:04.908Z,77.1
2022-10-27T04:45:52.320Z,77.7
2022-10-27T04:48:39.895Z,77.7
2022-10-27T04:51:27.221Z,77.6
2022-10-27T04:54:14.467Z,78.6
2022-10-27T04:57:01.925Z,78
2022-10-27T04:59:49.576Z,78.1
2022-10-27T05:02:38.752Z,77.8
2022-10-27T05:05:26.356Z,77.7
2022-10-27T05:08:14.657Z,77.4
2022-10-27T05:11:02.060Z,78.9
2022-10-27T05:13:49.519Z,77.6
2022-10-27T05:16:37.035Z,77.1
2022-10-27T05:19:24.366Z,76.7
2022-10-27T05:22:11.695Z,76.4
2022-10-27T05:24:59.015Z,76.5
2022-10-27T05:27:46.760Z,77.5
2022-10-27T05:30:34.118Z,77.2
2022-10-27T05:33:21.989Z,77
2022-10-27T05:36:09.896Z,76.8
2022-10-27T05:38:57.206Z,76.2
2022-10-27T05:41:44.460Z,76.6
2022-10-27T05:44:31.783Z,76.6
2022-10-27T05:47:19.330Z,76.2
2022-10-27T05:50:07.467Z,76.1
2022-10-27T05:52:55.384Z,76.8
2022-10-27T05:55:43.630Z,77.7
2022-10-27T05:58:31.238Z,77.4
2022-10-27T06:01:18.970Z,77.6
2022-10-27T06:04:07.302Z,77.6
2022-10-27T06:06:54.990Z,77.9
2022-10-27T06:09:42.308Z,78.3
2022-10-27T06:12:29.793Z,78.1
2022-10-27T06:15:17.135Z,78.4
2022-10-27T06:18:05.420Z,78.2
2022-10-27T06:20:52.901Z,78.7
2022-10-27T06:23:40.394Z,79.5
2022-10-27T06:26:27.987Z,79
2022-10-27T06:29:15.204Z,78.8
2022-10-27T06:32:02.457Z,79.3
2022-10-27T06:34:50.226Z,79.2
2022-10-27T06:37:37.474Z,78.6
2022-10-27T06:40:25.895Z,79.7
2022-10-27T06:43:13.631Z,80.6
2022-10-27T06:46:02.094Z,78.8
2022-10-27T06:48:49.648Z,78.7
2022-10-27T06:51:36.956Z,78.9
2022-10-27T06:54:24.268Z,79.5
2022-10-27T06:57:11.819Z,80.8
2022-10-27T06:59:59.846Z,81.7
2022-10-27T07:02:47.686Z,81.5
2022-10-27T07:05:35.651Z,82
2022-10-27T07:08:23.028Z,82.2
2022-10-27T07:11:10.472Z,82.2
2022-10-27T07:13:57.840Z,81.8
2022-10-27T07:16:45.406Z,81.8
2022-10-27T07:19:32.821Z,80.6
2022-10-27T07:22:20.375Z,81.7
2022-10-27T07:25:07.826Z,81.5
2022-10-27T07:27:55.780Z,82.2
2022-10-27T07:30:44.412Z,81.8
2022-10-27T07:33:32.939Z,82.4
2022-10-27T07:36:20.637Z,82.6
2022-10-27T07:39:08.217Z,82.2
2022-10-27T07:41:55.537Z,82.1
2022-10-27T07:44:42.980Z,82.4
2022-10-27T07:47:30.277Z,81.9
2022-10-27T07:50:17.652Z,82.1
2022-10-27T07:53:07.759Z,82
2022-10-27T07:55:55.581Z,82
2022-10-27T07:58:44.129Z,81.1
2022-10-27T08:01:34.306Z,81.1
2022-10-27T08:04:21.771Z,81
2022-10-27T08:07:09.193Z,80.6
2022-10-27T08:09:56.589Z,80.3
2022-10-27T08:12:43.977Z,80.5
2022-10-27T08:15:31.372Z,80.6
2022-10-27T08:18:20.079Z,80.7
2022-10-27T08:21:07.684Z,80.4
2022-10-27T08:23:55.042Z,80
2022-10-27T08:26:42.311Z,80.1
2022-10-27T08:29:29.630Z,79.5
2022-10-27T08:32:17.004Z,78.6
2022-10-27T08:35:05.391Z,78.5
2022-10-27T08:37:54.446Z,78.2
2022-10-27T08:40:44.537Z,77.8
2022-10-27T08:43:48.600Z,77.6
2022-10-27T08:46:51.880Z,77.6
2022-10-27T08:49:44.675Z,77.5
2022-10-27T08:52:40.844Z,77.2
2022-10-27T08:55:34.801Z,76.9
2022-10-27T08:58:31.750Z,76.2
2022-10-27T09:01:22.781Z,75.9
2022-10-27T09:04:19.325Z,76
2022-10-27T09:07:16.029Z,75.1
2022-10-27T09:10:13.209Z,74.1
2022-10-27T09:13:13.732Z,75
2022-10-27T09:16:14.575Z,75
2022-10-27T09:19:10.201Z,74.4
2022-10-27T09:22:01.491Z,73.8
2022-10-27T09:24:51.964Z,73.8
2022-10-27T09:27:42.924Z,73.1
2022-10-27T09:30:33.232Z,73.3
2022-10-27T09:33:25.259Z,73
2022-10-27T09:36:15.951Z,71.6
2022-10-27T09:39:07.060Z,72.4
2022-10-27T09:41:54.553Z,71.3
2022-10-27T09:44:42.786Z,71
2022-10-27T09:47:37.959Z,71.2
2022-10-27T09:50:28.061Z,70.4
2022-10-27T09:53:25.560Z,69.8
2022-10-27T09:56:32.616Z,69.8
2022-10-27T09:59:21.286Z,69.1
2022-10-27T10:02:09.303Z,69.9
2022-10-27T10:05:10.972Z,69.4
2022-10-27T10:08:08.947Z,68.1
2022-10-27T10:10:59.688Z,68.2
2022-10-27T10:13:49.885Z,68.7
2022-10-27T10:16:46.320Z,68.2
2022-10-27T10:19:34.643Z,65.8
2022-10-27T10:22:22.630Z,66.4
2022-10-27T10:25:12.941Z,66.8
2022-10-27T10:28:06.399Z,67
2022-10-27T10:31:06.091Z,66.4
2022-10-27T10:33:56.816Z,64.9
2022-10-27T10:36:50.823Z,66.1
2022-10-27T10:39:38.265Z,66.6
2022-10-27T10:42:25.661Z,65.6
2022-10-27T10:45:13.142Z,65.6
2022-10-27T10:48:07.025Z,66.5
2022-10-27T10:51:15.312Z,64.1
2022-10-27T10:54:10.949Z,65.7
2022-10-27T10:57:06.916Z,65.5
2022-10-27T11:00:10.941Z,65
2022-10-27T11:03:02.239Z,65.2
2022-10-27T11:06:00.265Z,64.1
2022-10-27T11:11:44.560Z,65
2022-10-27T11:14:34.285Z,64.6
2022-10-27T11:17:22.149Z,64.2
2022-10-27T11:20:12.743Z,65
2022-10-27T11:23:07.629Z,64.5
2022-10-27T11:26:01.502Z,63.6
2022-10-27T11:28:49.572Z,63.4
2022-10-27T11:31:48.475Z,63.8
2022-10-27T11:34:47.617Z,62.7
2022-10-27T11:37:43.775Z,62.1
2022-10-27T11:40:38.632Z,61.9
2022-10-27T11:43:34.194Z,62.9
2022-10-27T11:46:25.764Z,61
2022-10-27T11:49:19.725Z,62.4
2022-10-27T11:52:17.645Z,62.1
2022-10-27T11:55:10.358Z,61.7
2022-10-27T11:58:01.952Z,63
2022-10-27T12:00:57.485Z,62.2
2022-10-27T12:03:56.978Z,61.6
2022-10-27T12:06:59.108Z,62.3
2022-10-27T12:09:56.097Z,61.5
2022-10-27T12:12:57.980Z,62
2022-10-27T12:15:49.401Z,61.9
2022-10-27T12:18:44.725Z,61.8
2022-10-27T12:21:36.869Z,62.5
2022-10-27T12:24:28.465Z,62.4
2022-10-27T12:27:22.742Z,63
2022-10-27T12:30:15.749Z,63.2
2022-10-27T12:33:06.111Z,63.8
2022-10-27T12:36:02.122Z,64.4
2022-10-27T12:38:56.718Z,64.4
2022-10-27T12:41:52.555Z,64.4
2022-10-27T12:44:51.918Z,64.1
2022-10-27T12:47:51.730Z,64
2022-10-27T12:50:49.800Z,64
2022-10-27T12:53:47.970Z,63.2
2022-10-27T12:56:40.287Z,63.6
2022-10-27T12:59:35.104Z,63.6
2022-10-27T13:02:35.262Z,63.6
2022-10-27T13:05:29.243Z,63.2
2022-10-27T13:08:41.922Z,62.6
2022-10-27T13:11:47.781Z,62.7
2022-10-27T13:14:59.637Z,62.2
2022-10-27T13:18:09.487Z,62.4
2022-10-27T13:21:12.968Z,62.5
2022-10-27T13:24:07.599Z,61.6
2022-10-27T13:27:07.071Z,61.5
2022-10-27T13:30:02.933Z,61.6
2022-10-27T13:33:00.426Z,61.8
2022-10-27T13:35:47.870Z,62.1
2022-10-27T13:39:01.683Z,60.4
2022-10-27T13:42:30.757Z,61
2022-10-27T13:45:18.832Z,60.6
2022-10-27T13:48:38.700Z,59.8
2022-10-27T13:51:47.297Z,60.7
2022-10-27T13:54:56.737Z,60.2
2022-10-27T13:57:47.910Z,60.2
2022-10-27T14:01:19.082Z,60.5
2022-10-27T14:04:20.580Z,60.5
2022-10-27T14:07:32.893Z,60.7
2022-10-27T14:10:21.745Z,59.8
2022-10-27T14:13:10.405Z,60.2
2022-10-27T14:16:05.716Z,60.3
2022-10-27T14:19:03.028Z,60.2
2022-10-27T14:21:59.401Z,60.2
2022-10-27T14:24:49.414Z,60.7
2022-10-27T14:27:42.041Z,61.9
2022-10-27T14:30:30.220Z,62.1
2022-10-27T14:33:18.865Z,62.6
2022-10-27T14:36:09.588Z,62.8
2022-10-27T14:39:04.682Z,63.3
2022-10-27T14:42:09.053Z,63
2022-10-27T14:45:03.293Z,63.9
2022-10-27T14:47:58.082Z,64.1
2022-10-27T14:50:49.105Z,64.5
2022-10-27T14:53:37.410Z,64.9
2022-10-27T14:56:24.927Z,65
2022-10-27T14:59:13.955Z,65.7
2022-10-27T15:02:05.541Z,65.8
2022-10-27T15:04:57.005Z,66.3
2022-10-27T15:08:07.964Z,66.4
2022-10-27T15:11:00.649Z,66.7
2022-10-27T15:13:52.212Z,67
2022-10-27T15:16:40.685Z,67.4
2022-10-27T15:19:31.682Z,67.6
2022-10-27T15:22:20.712Z,67.7
2022-10-27T15:25:09.208Z,68
2022-10-27T15:28:00.091Z,68.2
2022-10-27T15:30:48.257Z,68.3
2022-10-27T15:33:35.979Z,68.6
2022-10-27T15:36:28.250Z,68.9
2022-10-27T15:39:16.277Z,69
2022-10-27T15:42:05.561Z,69.3
2022-10-27T15:45:02.459Z,69.4
2022-10-27T15:48:15.711Z,69.7
2022-10-27T15:51:21.726Z,69.9
2022-10-27T15:54:10.514Z,70
2022-10-27T15:57:04.923Z,70
2022-10-27T16:00:15.002Z,70.4
2022-10-27T16:03:09.059Z,70.6
2022-10-27T16:06:13.445Z,70.7
2022-10-27T16:09:06.716Z,70.5
2022-10-27T16:11:56.438Z,70.7
2022-10-27T16:14:48.556Z,70.9
2022-10-27T16:17:39.670Z,71
2022-10-27T16:20:31.435Z,71.6
2022-10-27T16:23:19.068Z,71.4
2022-10-27T16:26:08.069Z,71.4
2022-10-27T16:29:00.444Z,71.8
2022-10-27T16:31:49.447Z,71.6
2022-10-27T16:34:37.103Z,72.1
2022-10-27T16:37:25.184Z,71.7
2022-10-27T16:40:14.932Z,71.9
2022-10-27T16:43:03.422Z,72
2022-10-27T16:46:08.438Z,72.1
2022-10-27T16:48:56.569Z,71.7
2022-10-27T16:51:43.916Z,72.2
2022-10-27T16:54:31.381Z,72
2022-10-27T16:57:20.117Z,72
2022-10-27T17:00:07.759Z,72
2022-10-27T17:02:58.678Z,72
2022-10-27T17:05:46.467Z,72.6
2022-10-27T17:08:33.983Z,72.6
2022-10-27T17:11:22.179Z,74
2022-10-27T17:14:09.523Z,73.7
2022-10-27T17:16:57.063Z,73.2
2022-10-27T17:19:44.535Z,73.2
2022-10-27T17:22:32.449Z,73.4
2022-10-27T17:25:21.118Z,73.4
2022-10-27T17:28:08.663Z,73.5
2022-10-27T17:30:56.037Z,73.7
2022-10-27T17:33:45.745Z,73.5
2022-10-27T17:36:33.064Z,73.3
2022-10-27T17:39:20.720Z,73.3
2022-10-27T17:42:08.698Z,73.4
2022-10-27T17:44:56.122Z,73.4
2022-10-27T17:47:43.500Z,74.4
2022-10-27T17:50:32.226Z,74.8
2022-10-27T17:53:19.833Z,74
2022-10-27T17:56:08.173Z,74.1
2022-10-27T17:58:58.950Z,73.8
2022-10-27T18:01:46.547Z,73.4
2022-10-27T18:04:34.633Z,73.5
2022-10-27T18:07:22.090Z,73.3
2022-10-27T18:10:09.464Z,73.4
2022-10-27T18:12:56.962Z,73.1
2022-10-27T18:15:44.489Z,73.3
2022-10-27T18:18:31.913Z,72.9
2022-10-27T18:21:19.748Z,73.1
2022-10-27T18:24:09.856Z,73.4
2022-10-27T18:26:59.275Z,73.5
2022-10-27T18:29:47.093Z,73.7
2022-10-27T18:32:34.463Z,73.5
2022-10-27T18:35:21.954Z,73.5
2022-10-27T18:38:09.418Z,73.3
2022-10-27T18:40:56.716Z,73
2022-10-27T18:43:45.186Z,73.5
2022-10-27T18:46:33.427Z,73.7
2022-10-27T18:49:25.791Z,73.2
2022-10-27T18:52:24.144Z,73.7
2022-10-27T18:55:11.569Z,73.3
2022-10-27T18:57:59.133Z,73.6
2022-10-27T19:00:46.643Z,73.8
2022-10-27T19:03:33.996Z,73.9
2022-10-27T19:06:21.898Z,73.8
2022-10-27T19:09:10.293Z,73.9
2022-10-27T19:11:59.076Z,73.9
2022-10-27T19:14:46.391Z,73.9
2022-10-27T19:17:33.892Z,74.3
2022-10-27T19:20:21.282Z,74.3
2022-10-27T19:23:08.636Z,74.1
2022-10-27T19:25:56.098Z,74.7
2022-10-27T19:28:50.731Z,74.6
2022-10-27T19:31:40.164Z,74.7
2022-10-27T19:34:27.660Z,74.9
2022-10-27T19:37:15.257Z,75
2022-10-27T19:40:03.059Z,75.6
2022-10-27T19:42:53.207Z,75.5
2022-10-27T19:45:40.543Z,75.6
2022-10-27T19:48:32.737Z,75.4
2022-10-27T19:51:21.105Z,75.1
2022-10-27T19:54:13.965Z,74.9
2022-10-27T19:57:04.713Z,74.7
2022-10-27T19:59:53.290Z,74.9
2022-10-27T20:02:40.717Z,74.7
2022-10-27T20:05:28.199Z,74.4
2022-10-27T20:08:15.892Z,74.1
2022-10-27T20:11:03.206Z,74.3
2022-10-27T20:13:52.879Z,74.2
2022-10-27T20:16:41.702Z,74
2022-10-27T20:19:33.307Z,74.4
2022-10-27T20:22:24.508Z,74.7
2022-10-27T20:25:11.988Z,74.5
2022-10-27T20:27:59.490Z,74.7
2022-10-27T20:30:46.940Z,74.6
2022-10-27T20:33:34.412Z,75.1
2022-10-27T20:36:22.248Z,74.7
2022-10-27T20:39:10.193Z,74.7
2022-10-27T20:41:59.679Z,74.9
2022-10-27T20:44:47.128Z,75.1
2022-10-27T20:47:34.440Z,75.1
2022-10-27T20:50:21.784Z,74.8
2022-10-27T20:53:09.181Z,74.6
2022-10-27T20:55:56.558Z,74.9
2022-10-27T20:58:44.801Z,75.2
2022-10-27T21:01:34.101Z,75.4
2022-10-27T21:04:23.141Z,74.9
2022-10-27T21:07:10.998Z,75.4
2022-10-27T21:09:58.556Z,75.4
2022-10-27T21:12:45.849Z,75.7
2022-10-27T21:15:33.135Z,75.6
2022-10-27T21:18:20.860Z,75.6
2022-10-27T21:21:09.154Z,75.9
2022-10-27T21:23:57.606Z,76.1
2022-10-27T21:26:45.886Z,75.5
2022-10-27T21:29:33.388Z,75.4
2022-10-27T21:32:20.945Z,75.6
2022-10-27T21:35:08.854Z,75.7
2022-10-27T21:37:56.536Z,75.8
2022-10-27T21:40:45.597Z,76.3
2022-10-27T21:43:32.968Z,76.3
2022-10-27T21:46:21.464Z,76.5
2022-10-27T21:49:11.435Z,76.7
2022-10-27T21:51:59.127Z,77.6
2022-10-27T21:54:46.425Z,78
2022-10-27T21:57:33.794Z,77.9
2022-10-27T22:00:21.471Z,77.7
2022-10-27T22:03:10.208Z,77.5
2022-10-27T22:05:58.656Z,77.3
2022-10-27T22:08:46.955Z,77.3
2022-10-27T22:11:39.469Z,76.9
2022-10-27T22:14:30.541Z,77.1
2022-10-27T22:17:21.429Z,76.9
2022-10-27T22:20:08.935Z,76.9
2022-10-27T22:22:56.691Z,77.1
2022-10-27T22:25:44.067Z,76.7
2022-10-27T22:28:31.446Z,76.8
2022-10-27T22:31:19.831Z,77
2022-10-27T22:34:10.999Z,76.5
2022-10-27T22:36:58.714Z,76.8
2022-10-27T22:39:46.092Z,76.9
2022-10-27T22:42:33.494Z,76.9
2022-10-27T22:45:21.080Z,76.9
2022-10-27T22:48:08.833Z,76.9
2022-10-27T22:50:56.227Z,77.1
2022-10-27T22:53:45.689Z,77.4
2022-10-27T22:56:35.199Z,77.3
2022-10-27T22:59:22.493Z,77.5
2022-10-27T23:02:09.840Z,77.4
2022-10-27T23:04:57.472Z,77.5
2022-10-27T23:07:44.713Z,77.4
2022-10-27T23:10:31.941Z,77.7
2022-10-27T23:13:19.370Z,77.8
2022-10-27T23:16:07.927Z,78
2022-10-27T23:18:55.345Z,78.1
2022-10-27T23:21:43.730Z,78.1
2022-10-27T23:24:31.157Z,78.4
2022-10-27T23:27:18.532Z,78.4
2022-10-27T23:30:06.760Z,78.8
2022-10-27T23:32:55.161Z,78.8
2022-10-27T23:35:42.411Z,78.6
2022-10-27T23:38:40.481Z,78.5
2022-10-27T23:41:27.841Z,78.6
2022-10-27T23:44:15.742Z,78.4
2022-10-27T23:47:03.113Z,78.3
2022-10-27T23:49:50.550Z,78.1
2022-10-27T23:52:37.747Z,78
2022-10-27T23:55:25.130Z,78.1
2022-10-27T23:58:12.473Z,78.1
